Time;durP1;ratioP1;P1;durP2;ratioP2;P2;SDS_P1;SDS_P2;PMS_P1;PMS_P2;Temp;Humidity;BMP_temperature;BMP_pressure;BME280_temperature;BME280_humidity;BME280_pressure;Samples;Min_cycle;Max_cycle;Signal;HPM_P1;HPM_P2
2023/10/11 00:01:18;;;;;;;12.37;6.47;;;19.00;84.20;;;20.48;57.91;101054.44;3081575;46;20431;-69
2023/10/11 00:03:52;;;;;;;11.73;6.50;;;19.00;84.30;;;20.43;58.02;101059.66;3081594;46;20542;-68
2023/10/11 00:06:21;;;;;;;13.70;6.43;;;19.00;84.20;;;20.43;58.08;101054.31;3081674;46;20431;-67
2023/10/11 00:08:50;;;;;;;8.10;6.83;;;19.00;84.40;;;20.44;57.63;101058.63;3081194;46;20477;-68
2023/10/11 00:11:24;;;;;;;11.63;6.10;;;19.00;84.40;;;20.45;57.72;101063.75;3081537;46;21016;-68
2023/10/11 00:13:54;;;;;;;8.97;6.37;;;19.00;84.50;;;20.43;58.00;101059.66;3081182;46;20451;-69
2023/10/11 00:16:22;;;;;;;9.20;5.70;;;19.00;84.60;;;20.44;58.10;101055.97;3081603;46;20451;-68
2023/10/11 00:18:51;;;;;;;9.63;5.40;;;19.00;84.60;;;20.46;57.67;101052.00;3080968;46;21093;-69
2023/10/11 00:21:35;;;;;;;8.10;6.00;;;19.00;84.70;;;20.47;57.88;101055.47;3081188;43;20431;-68
2023/10/11 00:24:04;;;;;;;10.43;5.53;;;19.00;84.70;;;20.48;57.60;101051.78;3081105;46;20454;-68
2023/10/11 00:26:34;;;;;;;11.37;5.73;;;19.00;84.70;;;20.48;57.57;101051.78;3081580;46;20491;-68
2023/10/11 00:29:04;;;;;;;10.60;6.03;;;19.00;84.70;;;20.49;58.03;101040.03;3081150;46;21118;-68
2023/10/11 00:31:35;;;;;;;8.33;5.77;;;18.90;84.60;;;20.47;57.73;101034.09;3081632;46;20460;-68
2023/10/11 00:34:07;;;;;;;9.07;5.33;;;18.90;84.60;;;20.49;57.73;101037.38;3081228;46;20481;-69
2023/10/11 00:36:35;;;;;;;11.60;6.47;;;18.90;84.60;;;20.48;57.78;101041.91;3080983;46;20458;-69
2023/10/11 00:39:07;;;;;;;14.53;6.43;;;19.00;84.70;;;20.50;57.75;101028.28;3081080;43;20439;-68
2023/10/11 00:41:39;;;;;;;11.70;6.50;;;18.90;84.60;;;20.51;57.68;101037.94;3080980;46;20458;-68
2023/10/11 00:44:08;;;;;;;7.00;5.80;;;18.90;84.50;;;20.53;57.63;101049.22;3080728;46;20456;-69
2023/10/11 00:46:38;;;;;;;7.23;5.27;;;19.00;84.70;;;20.57;57.47;101037.00;3080894;46;20453;-70
2023/10/11 00:49:12;;;;;;;10.43;6.37;;;19.00;84.70;;;20.58;57.30;101035.97;3080273;46;20482;-69
2023/10/11 00:51:46;;;;;;;12.10;5.43;;;19.00;84.50;;;20.57;57.43;101039.66;3080251;46;20443;-68
2023/10/11 00:54:16;;;;;;;8.27;5.63;;;19.00;84.40;;;20.55;57.18;101037.25;3080415;46;20564;-66
2023/10/11 00:56:49;;;;;;;9.90;6.10;;;19.00;84.40;;;20.57;57.39;101039.66;3081067;46;21016;-68
2023/10/11 00:59:21;;;;;;;12.27;6.60;;;19.00;84.30;;;20.57;57.45;101040.50;3080595;46;20438;-69
2023/10/11 01:01:53;;;;;;;10.10;5.63;;;19.00;84.30;;;20.57;57.14;101028.97;3080738;46;20474;-68
2023/10/11 01:04:27;;;;;;;8.03;5.90;;;19.00;84.30;;;20.57;57.40;101024.44;3080839;46;20427;-66
2023/10/11 01:06:56;;;;;;;9.27;6.00;;;19.00;84.30;;;20.56;57.21;101022.81;3081087;46;20557;-68
2023/10/11 01:09:28;;;;;;;8.57;6.27;;;19.00;84.30;;;20.56;57.10;101024.69;3080032;46;20498;-68
2023/10/11 01:11:57;;;;;;;10.77;5.67;;;19.00;84.30;;;20.55;57.12;101034.56;3080794;46;20444;-70
2023/10/11 01:14:25;;;;;;;9.17;6.10;;;19.00;84.20;;;20.54;57.24;101024.13;3080408;46;20452;-68
2023/10/11 01:16:55;;;;;;;11.53;6.07;;;19.00;84.20;;;20.53;57.37;101034.00;3080992;46;20503;-69
2023/10/11 01:19:25;;;;;;;13.27;6.33;;;19.00;84.20;;;20.51;57.09;101020.03;3080636;46;20463;-69
2023/10/11 01:21:59;;;;;;;6.27;5.67;;;19.00;84.20;;;20.51;57.24;101016.53;3080641;46;20499;-68
2023/10/11 01:24:29;;;;;;;9.60;5.77;;;18.90;84.20;;;20.50;57.45;101025.59;3080251;46;21173;-68
2023/10/11 01:26:57;;;;;;;8.87;5.50;;;18.90;84.20;;;20.49;57.59;101021.31;3080954;46;21098;-68
2023/10/11 01:29:25;;;;;;;8.97;5.53;;;18.90;84.20;;;20.47;57.62;101023.38;3080833;46;20463;-68
2023/10/11 01:31:54;;;;;;;7.33;5.67;;;18.90;84.30;;;20.44;57.63;101015.84;3081500;46;20451;-68
2023/10/11 01:34:27;;;;;;;12.77;6.20;;;18.90;84.30;;;20.41;57.79;101018.97;3081608;46;20427;-68
2023/10/11 01:36:55;;;;;;;8.07;5.40;;;18.90;84.30;;;20.38;57.85;101016.75;3081565;46;20447;-68
2023/10/11 01:39:23;;;;;;;7.87;5.67;;;18.90;84.40;;;20.36;57.48;101016.19;3080368;46;20577;-69
2023/10/11 01:41:58;;;;;;;10.40;7.00;;;18.80;84.40;;;20.35;57.69;101019.91;3080603;46;20516;-68
2023/10/11 01:44:26;;;;;;;9.60;6.10;;;18.80;84.50;;;20.34;58.00;101012.94;3080328;46;20520;-68
2023/10/11 01:46:55;;;;;;;7.97;5.43;;;18.80;84.60;;;20.34;57.52;101007.59;3080756;46;20483;-69
2023/10/11 01:49:23;;;;;;;12.30;5.20;;;18.80;84.80;;;20.35;57.65;100993.19;3080045;46;20565;-68
2023/10/11 01:51:52;;;;;;;10.53;6.60;;;18.80;84.80;;;20.34;57.59;100996.88;3081232;46;20451;-69
2023/10/11 01:54:22;;;;;;;11.77;6.03;;;18.80;84.80;;;20.35;57.71;101001.19;3080173;46;20474;-68
2023/10/11 01:56:56;;;;;;;9.70;6.27;;;18.80;84.90;;;20.35;57.87;101003.88;3080397;46;21001;-68
2023/10/11 01:59:25;;;;;;;10.10;6.30;;;18.80;84.90;;;20.33;57.99;101001.41;3080244;46;20442;-69
2023/10/11 02:01:59;;;;;;;7.37;6.07;;;18.80;84.90;;;20.34;57.73;101007.59;3080137;46;21024;-69
2023/10/11 02:04:29;;;;;;;7.67;5.80;;;18.80;84.90;;;20.35;58.07;101003.88;3080171;46;20458;-68
2023/10/11 02:06:57;;;;;;;9.73;6.30;;;18.80;85.00;;;20.34;57.68;101012.94;3080555;46;20477;-68
2023/10/11 02:09:26;;;;;;;8.47;6.03;;;18.80;84.90;;;20.33;57.48;100990.72;3079482;43;21452;-68
2023/10/11 02:11:54;;;;;;;9.37;5.47;;;18.80;84.90;;;20.34;57.89;100997.69;3080415;46;20430;-66
2023/10/11 02:14:25;;;;;;;7.80;5.50;;;18.80;84.90;;;20.35;57.73;100996.63;3079505;46;20455;-69
2023/10/11 02:16:53;;;;;;;9.00;6.20;;;18.70;85.00;;;20.34;57.84;100995.03;3079987;46;20466;-68
2023/10/11 02:19:23;;;;;;;10.27;5.80;;;18.70;85.00;;;20.35;57.63;100998.53;3079997;46;20450;-69
2023/10/11 02:21:55;;;;;;;9.23;6.20;;;18.80;85.10;;;20.36;57.75;100997.47;3080241;46;20985;-68
2023/10/11 02:24:25;;;;;;;8.93;6.33;;;18.80;85.10;;;20.33;57.72;100985.38;3082575;46;20508;-68
2023/10/11 02:26:55;;;;;;;11.07;6.23;;;18.80;85.10;;;20.32;57.98;100998.97;3082917;46;21148;-69
2023/10/11 02:29:25;;;;;;;9.43;6.80;;;18.80;85.10;;;20.32;58.07;100982.94;3082356;46;20442;-68
2023/10/11 02:31:57;;;;;;;8.20;6.63;;;18.80;85.00;;;20.31;58.15;100989.31;3082297;46;20439;-69
2023/10/11 02:34:27;;;;;;;10.27;6.30;;;18.70;85.00;;;20.32;57.90;100982.94;3082346;46;20442;-69
2023/10/11 02:37:04;;;;;;;10.00;6.40;;;18.70;85.00;;;20.32;57.86;100977.59;3082638;46;20546;-69
2023/10/11 02:39:34;;;;;;;8.70;6.53;;;18.70;85.10;;;20.30;57.98;100971.66;3082257;46;20562;-69
2023/10/11 02:42:05;;;;;;;7.57;5.57;;;18.70;85.00;;;20.30;58.03;100974.34;3082358;46;21044;-68
2023/10/11 02:44:39;;;;;;;10.47;6.40;;;18.70;85.20;;;20.30;58.06;100972.44;3082535;46;20935;-68
2023/10/11 02:47:09;;;;;;;8.07;5.70;;;18.70;85.20;;;20.32;58.33;100974.91;3082292;46;20439;-68
2023/10/11 02:49:38;;;;;;;9.17;6.23;;;18.70;85.20;;;20.32;58.08;100974.91;3081617;46;20439;-69
2023/10/11 02:52:07;;;;;;;9.40;5.90;;;18.70;85.30;;;20.34;58.05;100964.78;3082199;46;21030;-68
2023/10/11 02:54:40;;;;;;;13.23;6.80;;;18.70;85.40;;;20.35;57.90;100966.44;3082349;46;20431;-68
2023/10/11 02:57:09;;;;;;;8.63;6.27;;;18.70;85.40;;;20.36;58.02;100962.69;3082042;46;21006;-68
2023/10/11 02:59:37;;;;;;;12.27;7.10;;;18.70;85.40;;;20.37;57.81;100950.97;3080998;46;20992;-68
2023/10/11 03:02:07;;;;;;;11.20;7.30;;;18.70;85.40;;;20.35;57.74;100950.41;3082018;46;20443;-68
2023/10/11 03:04:39;;;;;;;11.33;6.97;;;18.70;85.30;;;20.31;58.20;100957.22;3081919;46;21122;-68
2023/10/11 03:07:15;;;;;;;10.23;7.33;;;18.70;85.30;;;20.30;58.15;100958.28;3082273;46;20464;-69
2023/10/11 03:09:43;;;;;;;7.53;6.10;;;18.80;85.40;;;20.31;58.28;100957.22;3082576;46;20471;-67
2023/10/11 03:12:30;;;;;;;14.60;6.47;;;18.70;85.40;;;20.32;58.07;100946.31;3081871;46;20427;-68
2023/10/11 03:15:09;;;;;;;7.63;6.13;;;18.70;85.40;;;20.33;58.30;100947.13;3081698;46;20476;-68
2023/10/11 03:17:41;;;;;;;14.70;6.93;;;18.70;85.40;;;20.30;57.65;100943.03;3082075;46;20423;-69
2023/10/11 03:20:35;;;;;;;9.03;7.03;;;18.70;85.50;;;20.28;58.19;100942.47;3081525;46;20468;-68
2023/10/11 03:23:10;;;;;;;7.77;6.97;;;18.70;85.40;;;20.23;58.28;100935.16;3081799;46;20427;-68
2023/10/11 03:25:43;;;;;;;11.43;7.00;;;18.70;85.40;;;20.20;58.29;100938.28;3081724;46;21081;-68
2023/10/11 03:28:14;;;;;;;12.83;7.73;;;18.70;85.30;;;20.11;58.43;100945.00;3081294;46;20501;-68
2023/10/11 03:30:43;;;;;;;8.93;6.17;;;18.70;85.30;;;20.14;58.59;100949.88;3081163;46;20443;-68
2023/10/11 03:33:11;;;;;;;13.77;7.20;;;18.70;85.40;;;20.17;58.31;100948.59;3081548;46;20457;-68
2023/10/11 03:35:41;;;;;;;8.07;6.87;;;18.70;85.50;;;20.19;58.57;100939.31;3081893;46;20439;-68
2023/10/11 03:38:17;;;;;;;9.60;6.73;;;18.70;85.60;;;20.14;58.85;100925.81;3081997;46;21051;-69
2023/10/11 03:40:54;;;;;;;9.33;7.27;;;18.70;85.50;;;20.15;58.43;100914.09;3081325;46;20485;-69
2023/10/11 03:43:26;;;;;;;11.43;7.17;;;18.70;85.50;;;20.07;58.82;100909.09;3080810;46;20431;-68
2023/10/11 03:45:59;;;;;;;8.37;7.30;;;18.70;85.50;;;20.01;59.01;100895.84;3081563;46;20427;-68
2023/10/11 03:48:35;;;;;;;10.63;7.80;;;18.70;85.50;;;20.01;58.67;100903.88;3081830;46;20544;-69
2023/10/11 03:51:06;;;;;;;10.23;7.60;;;18.60;85.50;;;19.97;58.94;100911.53;3081307;46;20447;-69
2023/10/11 03:53:39;;;;;;;10.57;7.60;;;18.60;85.60;;;19.98;58.85;100917.69;3081821;46;20471;-68
2023/10/11 03:56:07;;;;;;;10.60;7.53;;;18.60;85.70;;;19.98;58.94;100905.16;3081337;46;21020;-70
2023/10/11 03:58:37;;;;;;;8.93;7.23;;;18.50;85.70;;;19.96;58.85;100907.25;3081568;46;20572;-69
2023/10/11 04:03:43;;;;;;;9.90;7.13;;;18.50;85.80;;;19.96;59.08;100909.91;3081617;46;20439;-68
2023/10/11 04:06:15;;;;;;;12.93;7.30;;;18.50;86.60;;;19.96;58.71;100915.25;3081893;46;20438;-68
2023/10/11 04:08:57;;;;;;;12.13;7.30;;;18.50;85.80;;;19.97;59.14;100926.72;3081387;46;21025;-70
2023/10/11 04:11:37;;;;;;;12.97;7.20;;;18.40;85.70;;;19.97;58.46;100916.88;3081030;46;20435;-68
2023/10/11 04:14:17;;;;;;;9.10;6.87;;;18.40;85.70;;;19.96;59.06;100912.59;3081379;46;20541;-68
2023/10/11 04:16:45;;;;;;;9.00;6.93;;;18.40;85.60;;;19.95;58.50;100908.28;3081521;46;20459;-68
2023/10/11 04:19:14;;;;;;;9.63;7.00;;;18.40;85.70;;;19.96;58.63;100904.56;3081515;46;20447;-69
2023/10/11 04:24:19;;;;;;;12.10;6.73;;;18.40;85.60;;;19.98;58.68;100893.63;3081309;46;21028;-69
2023/10/11 04:26:57;;;;;;;10.00;7.03;;;18.40;85.50;;;19.99;58.62;100901.41;3080748;46;20435;-68
2023/10/11 04:29:31;;;;;;;9.70;6.73;;;18.40;85.40;;;19.98;58.36;100886.44;3080933;46;20443;-69
2023/10/11 04:34:31;;;;;;;14.03;7.10;;;18.40;85.20;;;20.00;58.12;100887.00;3081634;46;20513;-69
2023/10/11 04:37:05;;;;;;;11.73;6.40;;;18.40;85.00;;;20.00;57.88;100884.34;3081124;46;20520;-68
2023/10/11 04:39:34;;;;;;;12.53;6.80;;;18.40;85.00;;;20.00;58.05;100889.69;3080942;46;20509;-69
2023/10/11 04:42:03;;;;;;;11.23;6.50;;;18.40;84.90;;;20.01;57.92;100885.16;3081292;46;21016;-68
2023/10/11 04:44:42;;;;;;;7.93;6.93;;;18.40;84.80;;;20.01;58.08;100895.84;3080512;46;21036;-69
2023/10/11 04:47:11;;;;;;;12.17;7.40;;;18.40;84.70;;;20.02;57.78;100898.28;3081454;46;20456;-69
2023/10/11 04:49:43;;;;;;;7.43;6.63;;;18.40;84.70;;;20.01;57.65;100885.97;3080199;43;21153;-70
2023/10/11 04:52:22;;;;;;;8.77;6.40;;;18.40;84.70;;;20.01;57.74;100891.31;3080874;46;20447;-68
2023/10/11 04:54:54;;;;;;;11.57;6.97;;;18.40;84.60;;;20.02;57.56;100898.28;3080868;46;21034;-69
2023/10/11 04:57:39;;;;;;;10.10;6.67;;;18.40;84.70;;;20.03;57.65;100902.59;3080408;46;20431;-69
2023/10/11 05:00:10;;;;;;;9.33;6.83;;;18.50;84.70;;;20.01;57.76;100896.66;3080712;46;21015;-69
2023/10/11 05:02:39;;;;;;;10.43;6.80;;;18.40;84.40;;;20.01;57.99;100912.69;3080953;46;20526;-68
2023/10/11 05:05:18;;;;;;;14.47;6.80;;;18.50;84.50;;;20.01;57.40;100907.34;3081073;46;21075;-67
2023/10/11 05:07:46;;;;;;;10.67;7.10;;;18.40;84.40;;;20.01;57.82;100906.53;3081214;46;20462;-69
2023/10/11 05:10:29;;;;;;;12.13;7.50;;;18.40;84.40;;;19.98;57.16;100890.97;3080522;46;20438;-69
2023/10/11 05:13:05;;;;;;;10.03;7.30;;;18.40;84.10;;;19.98;57.17;100891.78;3080573;46;20470;-67
2023/10/11 05:15:42;;;;;;;12.33;7.30;;;18.40;84.10;;;19.95;57.17;100886.88;3081067;46;20427;-70
2023/10/11 05:18:18;;;;;;;10.87;6.70;;;18.40;84.00;;;19.96;57.32;100896.56;3081090;46;20514;-68
2023/10/11 05:20:57;;;;;;;13.03;7.53;;;18.40;84.10;;;19.96;57.57;100895.72;3080319;46;20450;-70
2023/10/11 05:26:38;;;;;;;7.77;6.43;;;18.40;83.90;;;19.94;57.43;100890.63;3080719;46;21155;-68
2023/10/11 05:29:12;;;;;;;14.33;7.47;;;18.40;83.90;;;19.91;57.59;100885.75;3080563;46;20523;-68
2023/10/11 05:32:19;;;;;;;10.13;7.23;;;18.40;83.70;;;19.91;57.40;100883.06;3080789;46;20427;-69
2023/10/11 05:51:19;;;;;;;9.53;6.43;;;18.30;83.80;;;19.83;57.50;100920.81;3080184;43;20467;-69
2023/10/11 05:53:50;;;;;;;9.60;7.40;;;18.30;83.80;;;19.84;57.16;100911.75;3079659;46;20423;-70
2023/10/11 05:56:21;;;;;;;9.80;7.10;;;18.30;83.80;;;19.85;56.99;100912.56;3078792;46;20582;-69
2023/10/11 05:58:53;;;;;;;10.23;5.83;;;18.30;83.90;;;19.84;57.13;100902.91;3081476;46;20537;-68
2023/10/11 06:01:23;;;;;;;12.50;6.30;;;18.30;83.80;;;19.82;57.33;100895.16;3081484;43;20535;-69
2023/10/11 06:03:55;;;;;;;9.80;5.63;;;18.30;83.70;;;19.85;57.40;100881.31;3080963;46;20521;-69
2023/10/11 06:06:27;;;;;;;9.00;6.43;;;18.30;83.80;;;19.85;56.90;100891.19;3082024;46;20440;-70
2023/10/11 06:08:59;;;;;;;13.07;6.63;;;18.30;83.60;;;19.88;57.07;100907.56;3081677;46;20431;-70
2023/10/11 06:11:36;;;;;;;11.53;7.03;;;18.30;83.70;;;19.90;57.06;100900.13;3080203;46;20474;-68
2023/10/11 06:14:07;;;;;;;8.30;6.80;;;18.30;83.80;;;19.94;56.93;100901.31;3078982;43;20464;-69
2023/10/11 06:16:39;;;;;;;14.60;7.03;;;18.30;83.80;;;19.96;57.10;100896.56;3080477;46;20467;-69
2023/10/11 06:19:16;;;;;;;8.73;6.70;;;18.30;83.50;;;19.94;56.65;100898.66;3080251;46;21083;-68
2023/10/11 06:22:09;;;;;;;13.37;7.30;;;18.30;83.30;;;19.95;57.15;100894.91;3081218;46;21019;-69
2023/10/11 06:24:38;;;;;;;9.30;6.90;;;18.30;83.30;;;19.95;56.87;100897.59;3081577;43;20460;-69
2023/10/11 06:29:53;;;;;;;8.80;6.97;;;18.40;83.30;;;20.02;56.84;100908.97;3081425;46;20611;-68
2023/10/11 06:32:23;;;;;;;8.83;6.70;;;18.40;83.20;;;20.04;56.58;100912.22;3081456;46;20569;-68
2023/10/11 06:34:52;;;;;;;11.23;6.80;;;18.40;83.10;;;20.08;56.53;100902.72;3081251;46;20427;-69
2023/10/11 06:37:26;;;;;;;10.77;6.67;;;18.40;83.10;;;20.11;56.60;100912.91;3080651;46;21109;-68
2023/10/11 06:42:23;;;;;;;12.87;7.00;;;18.40;82.80;;;20.12;56.12;100887.81;3081969;46;20629;-69
2023/10/11 06:44:59;;;;;;;12.77;6.50;;;18.50;82.70;;;20.16;56.28;100883.63;3082027;46;21085;-70
2023/10/11 06:47:35;;;;;;;9.50;6.53;;;18.50;82.80;;;20.21;56.31;100907.81;3081790;46;20447;-70
2023/10/11 06:50:12;;;;;;;13.43;7.70;;;18.50;82.50;;;20.19;56.10;100911.75;3080845;46;20471;-68
2023/10/11 06:52:43;;;;;;;10.07;6.60;;;18.50;82.20;;;20.22;56.11;100920.16;3081724;46;20454;-69
2023/10/11 06:55:22;;;;;;;9.80;5.90;;;18.60;82.40;;;20.27;56.05;100926.66;3080578;46;20500;-69
2023/10/11 06:57:54;;;;;;;14.03;6.77;;;18.60;82.50;;;20.33;55.64;100923.03;3079542;46;20431;-69
2023/10/11 07:00:27;;;;;;;12.20;6.43;;;18.60;82.40;;;20.36;55.48;100917.25;3079605;46;21086;-69
2023/10/11 07:05:49;;;;;;;10.87;6.80;;;18.70;82.30;;;20.41;55.16;100922.72;3081906;46;20431;-70
2023/10/11 07:08:20;;;;;;;12.47;7.17;;;18.70;82.30;;;20.44;55.79;100927.59;3081498;46;20485;-67
2023/10/11 07:11:01;;;;;;;9.40;6.20;;;18.70;82.20;;;20.46;55.66;100930.84;3080576;46;20443;-69
2023/10/11 07:16:27;;;;;;;13.10;6.77;;;18.70;82.90;;;20.50;55.64;100918.63;3079363;46;20451;-69
2023/10/11 07:18:58;;;;;;;12.27;7.30;;;18.80;82.10;;;20.58;55.12;100907.56;3079050;46;21410;-68
2023/10/11 07:27:26;;;;;;;11.40;7.40;;;18.90;82.10;;;20.64;55.10;100934.19;3078020;46;20451;-70
2023/10/11 07:29:56;;;;;;;12.60;7.47;;;18.90;81.90;;;20.68;55.01;100929.19;3079279;46;20446;-67
2023/10/11 07:32:24;;;;;;;10.03;7.00;;;18.90;81.90;;;20.72;55.37;100924.97;3080174;46;20513;-71
2023/10/11 07:34:54;;;;;;;11.30;7.23;;;18.90;82.00;;;20.76;55.26;100926.13;3080892;46;20510;-70
2023/10/11 07:37:26;;;;;;;13.20;8.00;;;19.00;81.90;;;20.80;54.95;100921.94;3080102;46;20427;-69
2023/10/11 07:40:00;;;;;;;13.67;6.70;;;19.00;81.70;;;20.83;54.65;100921.44;3080304;46;20969;-69
2023/10/11 07:42:37;;;;;;;9.63;7.47;;;19.00;81.80;;;20.85;54.91;100922.03;3079507;43;20540;-69
2023/10/11 07:45:15;;;;;;;9.20;7.50;;;19.10;81.70;;;20.86;54.99;100918.31;3079540;46;20473;-69
2023/10/11 07:47:48;;;;;;;10.90;7.53;;;19.10;81.50;;;20.90;54.66;100922.13;3080488;46;20427;-69
2023/10/11 07:50:22;;;;;;;11.37;6.37;;;19.20;81.70;;;20.98;54.88;100924.44;3077371;46;20505;-70
2023/10/11 07:52:55;;;;;;;12.67;7.20;;;19.20;81.70;;;21.01;54.66;100940.03;3080423;46;20455;-69
2023/10/11 07:55:26;;;;;;;11.80;8.00;;;19.20;81.50;;;21.04;54.44;100944.88;3080775;46;20452;-69
2023/10/11 07:58:00;;;;;;;12.10;7.77;;;19.30;81.60;;;21.07;54.50;100943.63;3080622;46;20451;-71
2023/10/11 08:00:30;;;;;;;13.17;8.00;;;19.30;81.60;;;21.12;54.79;100949.91;3078745;46;21008;-68
2023/10/11 08:03:04;;;;;;;13.70;7.83;;;19.30;81.60;;;21.10;54.29;100943.97;3080019;46;20442;-69
2023/10/11 08:05:45;;;;;;;13.73;8.50;;;19.40;81.30;;;21.12;54.53;100949.91;3080330;43;20431;-69
2023/10/11 08:08:14;;;;;;;10.80;7.50;;;19.40;81.40;;;21.17;54.99;100949.19;3080586;46;20448;-68
2023/10/11 08:10:51;;;;;;;12.53;8.30;;;19.40;81.40;;;21.23;54.64;100954.41;3078835;46;20451;-69
2023/10/11 08:13:26;;;;;;;10.83;8.07;;;19.50;81.60;;;21.33;54.17;100959.13;3078417;46;20581;-68
2023/10/11 08:15:58;;;;;;;12.03;8.20;;;19.50;81.50;;;21.42;54.23;100963.88;3079170;43;20926;-69
2023/10/11 08:18:27;;;;;;;10.60;7.57;;;19.60;81.60;;;21.54;54.12;100955.78;3080174;46;20589;-70
2023/10/11 08:20:57;;;;;;;15.97;8.97;;;19.60;81.60;;;21.62;53.99;100946.53;3078403;46;20435;-71
2023/10/11 08:23:29;;;;;;;10.97;8.20;;;19.70;81.30;;;21.63;53.72;100940.13;3080148;46;20427;-70
2023/10/11 08:25:59;;;;;;;11.50;8.50;;;19.70;80.90;;;21.59;53.85;100945.16;3079923;46;21036;-69
2023/10/11 08:28:28;;;;;;;11.57;8.37;;;19.80;81.50;;;21.59;53.74;100921.84;3079422;46;21148;-68
2023/10/11 08:30:57;;;;;;;14.80;8.57;;;19.80;80.70;;;21.62;53.85;100930.44;3078875;43;20501;-70
2023/10/11 08:33:30;;;;;;;14.30;9.27;;;19.90;80.80;;;21.67;53.99;100933.22;3079781;46;20557;-69
2023/10/11 08:36:02;;;;;;;15.10;9.10;;;19.90;80.90;;;21.64;54.12;100922.97;3080273;46;21071;-71
2023/10/11 08:38:32;;;;;;;14.97;8.23;;;19.90;80.70;;;21.58;54.29;100914.84;3078176;46;20435;-69
2023/10/11 08:41:00;;;;;;;11.23;8.53;;;19.90;80.60;;;21.66;54.24;100918.19;3079696;46;20443;-68
2023/10/11 08:43:29;;;;;;;11.80;7.57;;;20.00;80.90;;;21.75;53.93;100916.75;3079054;46;20427;-69
2023/10/11 08:46:08;;;;;;;11.43;8.43;;;20.00;80.90;;;21.87;54.07;100915.63;3081039;46;21010;-69
2023/10/11 08:48:40;;;;;;;11.53;8.23;;;20.10;81.20;;;22.01;53.85;100914.22;3078006;46;20427;-69
2023/10/11 08:51:14;;;;;;;13.23;8.87;;;20.10;81.00;;;22.25;53.33;100925.59;3080423;46;20447;-70
2023/10/11 08:53:54;;;;;;;12.43;8.50;;;20.20;81.00;;;22.36;52.96;100911.28;3078601;46;20577;-69
2023/10/11 08:56:25;;;;;;;11.23;7.83;;;20.30;80.50;;;22.52;52.74;100910.41;3080242;46;20617;-70
2023/10/11 08:58:54;;;;;;;11.83;8.37;;;20.40;80.60;;;22.72;52.43;100909.88;3078630;46;20431;-70
2023/10/11 09:01:24;;;;;;;14.43;9.00;;;20.60;80.40;;;22.90;51.82;100902.31;3077619;46;20496;-71
2023/10/11 09:04:11;;;;;;;12.87;8.73;;;20.70;80.00;;;22.96;51.60;100905.06;3075128;46;20541;-68
2023/10/11 09:06:45;;;;;;;15.50;9.50;;;20.80;79.60;;;23.00;51.33;100890.06;3077493;46;21284;-70
2023/10/11 09:09:39;;;;;;;9.50;8.30;;;21.00;79.10;;;23.01;51.36;100902.44;3076082;46;21071;-71
2023/10/11 09:12:24;;;;;;;10.23;8.47;;;21.10;79.00;;;23.04;51.34;100899.22;3076336;46;20486;-69
2023/10/11 09:14:59;;;;;;;12.00;8.37;;;21.10;78.60;;;23.09;51.67;100908.16;3078544;46;21160;-70
2023/10/11 09:17:28;;;;;;;13.27;8.73;;;21.20;78.60;;;23.13;51.67;100906.59;3078071;46;20544;-70
2023/10/11 09:19:58;;;;;;;11.87;9.13;;;21.20;78.60;;;23.33;50.88;100916.72;3078814;46;20570;-70
2023/10/11 09:22:28;;;;;;;12.03;8.87;;;21.20;78.70;;;23.48;50.89;100900.78;3080219;46;20431;-70
2023/10/11 09:25:20;;;;;;;12.53;8.70;;;21.30;78.80;;;23.60;50.76;100904.13;3080259;46;21012;-69
2023/10/11 09:27:50;;;;;;;14.73;8.33;;;21.40;78.70;;;23.79;50.67;100908.03;3079494;46;20479;-70
2023/10/11 09:30:21;;;;;;;14.03;9.07;;;21.50;79.00;;;23.97;50.43;100917.56;3079393;46;20438;-69
2023/10/11 09:32:51;;;;;;;12.93;8.87;;;21.60;78.70;;;24.06;49.69;100911.47;3083831;46;21004;-69
2023/10/11 09:35:36;;;;;;;17.27;9.43;;;21.70;78.00;;;24.06;49.92;100906.09;3082486;46;20431;-70
2023/10/11 09:38:08;;;;;;;13.03;9.50;;;21.90;77.70;;;24.15;50.00;100915.31;3081198;46;20537;-70
2023/10/11 09:40:40;;;;;;;15.63;9.00;;;22.00;77.70;;;24.14;49.75;100915.56;3081260;46;20442;-70
2023/10/11 09:43:16;;;;;;;11.93;9.33;;;22.10;77.30;;;24.08;50.09;100903.97;3081455;46;20447;-70
2023/10/11 09:45:53;;;;;;;13.57;8.37;;;22.10;77.10;;;24.08;49.85;100930.88;3081826;43;20573;-69
2023/10/11 09:48:23;;;;;;;12.43;8.77;;;22.10;77.10;;;23.94;49.93;100926.16;3082175;46;20430;-70
2023/10/11 09:50:57;;;;;;;11.67;8.83;;;22.10;76.70;;;23.93;50.32;100932.59;3081505;46;20463;-69
2023/10/11 09:53:26;;;;;;;15.53;8.70;;;22.10;77.10;;;23.90;50.43;100939.31;3080945;46;20515;-70
2023/10/11 09:56:15;;;;;;;11.10;8.23;;;22.10;77.20;;;23.77;50.72;100953.19;3082104;46;20558;-70
2023/10/11 09:59:10;;;;;;;14.87;9.13;;;22.00;77.00;;;23.63;50.84;100954.66;3081364;46;20453;-69
2023/10/11 10:02:03;;;;;;;16.27;9.10;;;22.00;77.50;;;23.51;51.16;100951.31;3080970;46;21008;-69
2023/10/11 10:05:04;;;;;;;10.67;7.87;;;21.90;77.70;;;23.39;51.34;100942.63;3080358;46;20455;-69
2023/10/11 10:10:13;;;;;;;14.70;9.00;;;21.70;78.30;;;23.36;51.68;100960.06;3081581;46;21102;-69
2023/10/11 10:12:59;;;;;;;11.83;9.40;;;21.70;78.80;;;23.31;52.29;100967.22;3081147;46;20431;-69
2023/10/11 10:15:36;;;;;;;11.60;9.07;;;21.60;79.00;;;23.29;52.42;100980.09;3082736;46;20443;-70
2023/10/11 10:18:12;;;;;;;17.47;8.57;;;21.50;79.20;;;23.23;52.53;100986.47;3082391;46;20572;-69
2023/10/11 10:20:43;;;;;;;11.10;8.37;;;21.50;79.40;;;23.13;52.84;100987.16;3081115;46;20471;-70
2023/10/11 10:23:15;;;;;;;13.87;9.40;;;21.40;79.70;;;23.05;52.98;100989.50;3082004;46;20527;-69
2023/10/11 10:25:52;;;;;;;17.07;9.67;;;21.40;80.10;;;23.00;53.32;100987.56;3081358;46;20431;-69
2023/10/11 10:28:32;;;;;;;12.63;9.73;;;21.30;80.50;;;22.89;53.56;101001.94;3080751;46;20464;-69
2023/10/11 10:31:21;;;;;;;16.20;9.97;;;21.30;80.80;;;22.76;54.27;101010.31;3081354;46;20711;-69
2023/10/11 10:34:13;;;;;;;14.70;9.17;;;21.20;81.00;;;22.64;54.33;101018.50;3082147;46;21199;-69
2023/10/11 10:36:43;;;;;;;15.70;10.53;;;21.10;81.40;;;22.63;54.30;101019.53;3081509;46;21077;-71
2023/10/11 10:41:42;;;;;;;14.70;10.50;;;21.00;81.70;;;22.51;54.64;101037.56;3082201;46;20451;-70
2023/10/11 10:44:17;;;;;;;14.67;10.63;;;20.90;82.00;;;22.44;54.86;101030.78;3080910;46;20423;-69
2023/10/11 10:46:55;;;;;;;16.57;11.40;;;20.90;82.30;;;22.41;55.33;101032.06;3081496;46;20443;-70
2023/10/11 10:49:42;;;;;;;16.97;11.87;;;20.80;82.70;;;22.34;55.57;101023.38;3081830;46;20439;-69
2023/10/11 10:52:26;;;;;;;14.30;11.20;;;20.70;82.80;;;22.33;55.49;101029.78;3080998;43;20427;-69
2023/10/11 10:55:01;;;;;;;16.57;12.00;;;20.70;83.30;;;22.32;55.92;101022.00;3082136;46;20485;-72
2023/10/11 10:57:37;;;;;;;17.03;12.60;;;20.60;83.70;;;22.22;56.15;101023.47;3081810;46;20431;-69
2023/10/11 11:00:21;;;;;;;15.93;12.33;;;20.60;84.40;;;22.17;56.65;101035.97;3081123;46;20463;-68
2023/10/11 11:02:50;;;;;;;13.10;10.70;;;20.50;84.50;;;22.12;56.99;101022.47;3081476;46;20470;-68
2023/10/11 11:05:25;;;;;;;12.37;10.83;;;20.50;85.00;;;22.04;57.19;101012.13;3081890;46;20520;-68
2023/10/11 11:08:15;;;;;;;13.27;11.67;;;20.40;85.30;;;21.95;57.56;101001.03;3081769;46;20548;-72
2023/10/11 11:10:54;;;;;;;14.30;10.43;;;20.40;86.00;;;21.96;57.91;101001.84;3081377;46;20457;-66
2023/10/11 11:13:25;;;;;;;13.07;11.47;;;20.40;86.20;;;21.95;57.88;100998.34;3081803;46;20464;-67
2023/10/11 11:15:58;;;;;;;15.20;11.73;;;20.30;86.30;;;21.95;58.12;101002.88;3081097;46;20474;-69
2023/10/11 11:18:33;;;;;;;12.23;10.70;;;20.30;86.60;;;21.92;58.14;101011.41;3080851;46;20428;-68
2023/10/11 11:21:25;;;;;;;12.03;10.83;;;20.30;87.00;;;21.87;58.44;101014.03;3081204;46;20439;-68
2023/10/11 11:23:53;;;;;;;14.43;11.37;;;20.20;87.60;;;21.90;58.76;101002.78;3081573;46;20482;-67